createdAt,value
2018-05-04T00:01:41.739Z,0.00
2018-05-04T00:02:41.734Z,0.00
2018-05-04T00:04:34.663Z,0.00
2018-05-04T00:05:34.653Z,0.00
2018-05-04T00:07:27.554Z,0.00
2018-05-04T00:08:27.574Z,0.00
2018-05-04T00:10:20.491Z,0.00
2018-05-04T00:11:20.490Z,0.00
2018-05-04T00:13:13.393Z,0.00
2018-05-04T00:14:13.413Z,0.00
2018-05-04T00:16:06.336Z,0.00
2018-05-04T00:17:06.335Z,0.00
2018-05-04T00:18:59.232Z,0.00
2018-05-04T00:19:59.252Z,0.00
2018-05-04T00:21:52.168Z,0.00
2018-05-04T00:22:52.166Z,0.00
2018-05-04T00:24:45.087Z,0.00
2018-05-04T00:25:45.085Z,0.00
2018-05-04T00:27:38.186Z,0.00
2018-05-04T00:28:38.202Z,0.00
2018-05-04T00:30:31.627Z,0.00
2018-05-04T00:31:31.625Z,0.00
2018-05-04T00:33:24.524Z,0.00
2018-05-04T00:34:24.546Z,0.00
2018-05-04T00:36:17.460Z,0.00
2018-05-04T00:37:17.459Z,0.00
2018-05-04T00:39:10.358Z,0.00
2018-05-04T00:40:10.377Z,0.00
2018-05-04T00:42:03.296Z,0.00
2018-05-04T00:43:03.296Z,0.00
2018-05-04T00:44:56.211Z,0.00
2018-05-04T00:45:56.211Z,0.00
2018-05-04T00:47:49.114Z,0.00
2018-05-04T00:48:49.133Z,0.00
2018-05-04T00:50:42.049Z,0.00
2018-05-04T00:51:42.047Z,0.00
2018-05-04T00:53:34.945Z,0.00
2018-05-04T00:54:34.965Z,0.00
2018-05-04T00:56:27.887Z,0.00
2018-05-04T00:57:27.890Z,0.00
2018-05-04T00:59:20.787Z,0.00
2018-05-04T01:00:20.805Z,0.00
2018-05-04T01:02:13.727Z,0.00
2018-05-04T01:03:20.852Z,0.00
2018-05-04T01:05:13.763Z,0.00
2018-05-04T01:06:13.765Z,0.00
2018-05-04T01:07:59.543Z,0.00
2018-05-04T01:08:59.567Z,0.00
2018-05-04T01:10:52.480Z,0.00
2018-05-04T01:11:59.598Z,0.00
2018-05-04T01:13:45.378Z,0.00
2018-05-04T01:14:45.397Z,0.00
2018-05-04T01:16:38.314Z,0.00
2018-05-04T01:17:45.435Z,0.00
2018-05-04T01:19:31.211Z,0.00
2018-05-04T01:20:38.348Z,0.00
2018-05-04T01:22:31.270Z,0.00
2018-05-04T01:23:31.267Z,0.00
2018-05-04T01:25:24.185Z,0.00
2018-05-04T01:26:24.187Z,0.00
2018-05-04T01:28:17.081Z,0.00
2018-05-04T01:29:17.100Z,0.00
2018-05-04T01:31:10.016Z,0.00
2018-05-04T01:32:10.017Z,0.00
2018-05-04T01:34:02.909Z,0.00
2018-05-04T01:34:55.806Z,0.00
2018-05-04T01:36:48.723Z,0.00
2018-05-04T01:37:48.720Z,0.00
2018-05-04T01:39:41.617Z,0.00
2018-05-04T01:40:41.637Z,0.00
2018-05-04T01:42:34.555Z,0.00
2018-05-04T01:43:34.555Z,0.00
2018-05-04T01:45:27.475Z,0.00
2018-05-04T01:46:27.474Z,0.00
2018-05-04T01:48:20.364Z,0.00
2018-05-04T01:49:20.385Z,0.00
2018-05-04T01:51:13.301Z,0.00
2018-05-04T01:52:13.306Z,0.00
2018-05-04T01:54:06.337Z,0.00
2018-05-04T01:55:06.354Z,0.00
2018-05-04T01:56:59.272Z,0.00
2018-05-04T01:57:59.270Z,0.00
2018-05-04T01:59:52.171Z,0.00
2018-05-04T02:00:52.187Z,0.00
2018-05-04T02:02:45.107Z,0.00
2018-05-04T02:03:45.108Z,0.00
2018-05-04T02:05:38.022Z,0.00
2018-05-04T02:06:38.022Z,0.00
2018-05-04T02:08:30.921Z,0.00
2018-05-04T02:09:30.937Z,0.00
2018-05-04T02:11:23.855Z,0.00
2018-05-04T02:12:23.853Z,0.00
2018-05-04T02:14:16.750Z,0.00
2018-05-04T02:15:16.770Z,0.00
2018-05-04T02:17:09.685Z,0.00
2018-05-04T02:18:09.683Z,0.00
2018-05-04T02:20:02.578Z,0.00
2018-05-04T02:21:02.596Z,0.00
2018-05-04T02:22:55.512Z,0.00
2018-05-04T02:23:55.509Z,0.00
2018-05-04T02:25:48.430Z,0.00
2018-05-04T02:26:48.426Z,0.00
2018-05-04T02:28:41.342Z,0.00
2018-05-04T02:29:41.361Z,0.00
2018-05-04T02:31:34.285Z,0.00
2018-05-04T02:32:34.280Z,0.00
2018-05-04T02:34:27.179Z,0.00
2018-05-04T02:35:27.196Z,0.00
2018-05-04T02:37:20.111Z,0.00
2018-05-04T02:38:20.110Z,0.00
2018-05-04T02:40:13.013Z,0.00
2018-05-04T02:41:13.025Z,0.00
2018-05-04T02:43:05.944Z,0.00
2018-05-04T02:44:05.944Z,0.00
2018-05-04T02:45:58.859Z,0.00
2018-05-04T02:46:58.858Z,0.00
2018-05-04T02:48:51.752Z,0.00
2018-05-04T02:49:51.771Z,0.00
2018-05-04T02:51:44.691Z,0.00
2018-05-04T02:52:44.692Z,0.00
2018-05-04T02:54:37.598Z,0.00
2018-05-04T02:55:37.613Z,0.00
2018-05-04T02:57:30.523Z,0.00
2018-05-04T02:58:30.523Z,0.00
2018-05-04T03:00:23.416Z,0.00
2018-05-04T03:01:23.436Z,0.00
2018-05-04T03:03:16.357Z,0.00
2018-05-04T03:04:16.353Z,0.00
2018-05-04T03:06:09.275Z,0.00
2018-05-04T03:07:09.273Z,0.00
2018-05-04T03:09:02.168Z,0.00
2018-05-04T03:10:02.186Z,0.00
2018-05-04T03:11:55.110Z,0.00
2018-05-04T03:12:55.111Z,4.00
2018-05-04T03:14:48.009Z,4.00
2018-05-04T03:15:48.025Z,0.00
2018-05-04T03:17:40.938Z,4.00
2018-05-04T03:18:40.936Z,0.00
2018-05-04T03:20:33.834Z,8.00
2018-05-04T03:21:33.848Z,4.00
2018-05-04T03:23:26.763Z,4.00
2018-05-04T03:24:26.761Z,12.00
2018-05-04T03:26:19.679Z,8.00
2018-05-04T03:27:19.678Z,12.00
2018-05-04T03:29:12.576Z,16.00
2018-05-04T03:30:12.592Z,20.00
2018-05-04T03:32:05.506Z,24.00
2018-05-04T03:33:05.507Z,28.00
2018-05-04T03:34:58.402Z,40.00
2018-05-04T03:35:58.419Z,40.00
2018-05-04T03:37:51.334Z,52.00
2018-05-04T03:38:51.337Z,60.00
2018-05-04T03:40:44.229Z,76.00
2018-05-04T03:41:44.249Z,88.00
2018-05-04T03:43:37.168Z,104.00
2018-05-04T03:44:37.168Z,112.00
2018-05-04T03:46:30.221Z,140.00
2018-05-04T03:47:30.222Z,152.00
2018-05-04T03:49:23.116Z,180.00
2018-05-04T03:50:23.133Z,200.00
2018-05-04T03:52:16.049Z,236.00
2018-05-04T03:53:16.044Z,256.00
2018-05-04T03:55:09.172Z,296.00
2018-05-04T03:56:09.192Z,320.00
2018-05-04T03:58:02.102Z,368.00
2018-05-04T03:59:02.100Z,396.00
2018-05-04T04:00:55.006Z,452.00
2018-05-04T04:01:55.017Z,484.00
2018-05-04T04:03:47.931Z,540.00
2018-05-04T04:04:47.929Z,576.00
2018-05-04T04:06:40.868Z,640.00
2018-05-04T04:07:40.872Z,680.00
2018-05-04T04:09:33.767Z,752.00
2018-05-04T04:10:33.780Z,804.00
2018-05-04T04:12:26.699Z,892.00
2018-05-04T04:13:26.699Z,944.00
2018-05-04T04:15:19.595Z,1044.00
2018-05-04T04:16:19.619Z,1100.00
2018-05-04T04:18:12.527Z,1236.00
2018-05-04T04:19:12.525Z,1392.00
2018-05-04T04:21:05.417Z,1564.00
2018-05-04T04:22:05.439Z,1656.00
2018-05-04T04:23:58.355Z,1836.00
2018-05-04T04:24:58.353Z,1924.00
2018-05-04T04:26:51.279Z,2116.00
2018-05-04T04:27:51.266Z,2220.00
2018-05-04T04:29:44.163Z,2416.00
2018-05-04T04:30:44.183Z,2512.00
2018-05-04T04:32:37.121Z,2708.00
2018-05-04T04:33:37.099Z,2820.00
2018-05-04T04:35:30.108Z,3020.00
2018-05-04T04:36:30.038Z,3136.00
2018-05-04T04:38:22.959Z,3260.00
2018-05-04T04:39:22.958Z,3320.00
2018-05-04T04:41:15.856Z,3728.00
2018-05-04T04:42:15.873Z,3864.00
2018-05-04T04:44:08.996Z,4188.00
2018-05-04T04:45:08.998Z,4376.00
2018-05-04T04:47:01.919Z,4780.00
2018-05-04T04:48:01.920Z,5060.00
2018-05-04T04:49:54.823Z,4788.00
2018-05-04T04:50:54.837Z,3848.00
2018-05-04T04:52:47.757Z,3748.00
2018-05-04T04:53:47.757Z,3380.00
2018-05-04T04:55:40.658Z,3316.00
2018-05-04T04:56:40.682Z,3280.00
2018-05-04T04:58:33.598Z,3352.00
2018-05-04T04:59:33.600Z,3508.00
2018-05-04T05:01:26.699Z,3628.00
2018-05-04T05:02:26.718Z,3516.00
2018-05-04T05:04:19.638Z,3472.00
2018-05-04T05:05:19.639Z,3496.00
2018-05-04T05:07:12.562Z,3644.00
2018-05-04T05:08:12.557Z,3620.00
2018-05-04T05:10:05.459Z,3676.00
2018-05-04T05:11:05.478Z,3688.00
2018-05-04T05:12:58.398Z,3744.00
2018-05-04T05:13:58.399Z,3776.00
2018-05-04T05:15:51.300Z,3844.00
2018-05-04T05:16:51.320Z,3944.00
2018-05-04T05:18:44.238Z,3908.00
2018-05-04T05:19:44.240Z,3944.00
2018-05-04T05:21:37.139Z,4108.00
2018-05-04T05:22:37.157Z,4052.00
2018-05-04T05:24:30.082Z,4112.00
2018-05-04T05:25:30.077Z,4144.00
2018-05-04T05:27:23.003Z,4220.00
2018-05-04T05:28:23.001Z,4260.00
2018-05-04T05:30:15.901Z,4356.00
2018-05-04T05:31:15.919Z,4348.00
2018-05-04T05:33:08.842Z,4592.00
2018-05-04T05:34:08.840Z,4924.00
2018-05-04T05:36:01.749Z,4784.00
2018-05-04T05:37:01.769Z,4576.00
2018-05-04T05:38:54.686Z,4876.00
2018-05-04T05:39:54.687Z,4616.00
2018-05-04T05:41:47.588Z,4720.00
2018-05-04T05:42:47.607Z,4732.00
2018-05-04T05:44:40.531Z,6416.00
2018-05-04T05:45:40.531Z,5912.00
2018-05-04T05:47:33.451Z,4916.00
2018-05-04T05:48:33.448Z,4948.00
2018-05-04T05:50:26.357Z,5080.00
2018-05-04T05:51:26.368Z,5204.00
2018-05-04T05:53:19.290Z,5200.00
2018-05-04T05:54:19.291Z,5372.00
2018-05-04T05:56:12.192Z,13396.00
2018-05-04T05:57:12.208Z,20160.00
2018-05-04T05:59:05.131Z,21920.00
2018-05-04T06:00:05.131Z,22240.00
2018-05-04T06:01:58.216Z,21664.00
2018-05-04T06:02:58.237Z,21824.00
2018-05-04T06:04:51.164Z,24032.00
2018-05-04T06:05:51.164Z,23456.00
2018-05-04T06:07:44.252Z,25120.00
2018-05-04T06:08:44.252Z,24768.00
2018-05-04T06:10:37.389Z,22432.00
2018-05-04T06:11:37.410Z,23040.00
2018-05-04T06:13:30.340Z,26336.00
2018-05-04T06:14:30.340Z,27328.00
2018-05-04T06:16:23.249Z,26848.00
2018-05-04T06:17:23.271Z,26880.00
2018-05-04T06:19:16.204Z,26592.00
2018-05-04T06:20:16.206Z,27040.00
2018-05-04T06:22:09.314Z,27776.00
2018-05-04T06:23:09.342Z,28320.00
2018-05-04T06:25:02.339Z,27488.00
2018-05-04T06:26:02.278Z,28000.00
2018-05-04T06:27:55.337Z,28992.00
2018-05-04T06:28:55.349Z,29120.00
2018-05-04T06:30:48.259Z,29536.00
2018-05-04T06:31:48.283Z,29536.00
2018-05-04T06:33:41.227Z,28000.00
2018-05-04T06:34:41.230Z,27520.00
2018-05-04T06:36:34.141Z,28320.00
2018-05-04T06:37:34.167Z,28608.00
2018-05-04T06:39:27.101Z,31168.00
2018-05-04T06:40:27.107Z,32448.00
2018-05-04T06:42:27.147Z,33120.00
2018-05-04T06:43:27.170Z,31808.00
2018-05-04T06:45:12.986Z,33280.00
2018-05-04T06:46:12.997Z,33376.00
2018-05-04T06:48:06.133Z,34784.00
2018-05-04T06:49:06.130Z,34944.00
2018-05-04T06:50:59.261Z,33088.00
2018-05-04T06:51:59.289Z,33216.00
2018-05-04T06:53:52.224Z,33888.00
2018-05-04T06:54:52.237Z,34656.00
2018-05-04T06:56:45.154Z,34496.00
2018-05-04T06:57:45.180Z,33632.00
2018-05-04T06:59:38.114Z,34912.00
2018-05-04T07:00:38.195Z,35296.00
2018-05-04T07:02:31.172Z,31808.00
2018-05-04T07:03:31.199Z,20320.00
2018-05-04T07:05:24.137Z,6544.00
2018-05-04T07:06:24.143Z,5948.00
2018-05-04T07:08:17.087Z,5768.00
2018-05-04T07:09:17.091Z,5752.00
2018-05-04T07:11:10.005Z,5732.00
2018-05-04T07:12:10.030Z,5712.00
2018-05-04T07:14:02.964Z,5676.00
2018-05-04T07:15:02.982Z,5656.00
2018-05-04T07:16:55.880Z,5632.00
2018-05-04T07:17:55.904Z,5616.00
2018-05-04T07:19:48.837Z,5588.00
2018-05-04T07:20:48.853Z,5564.00
2018-05-04T07:22:41.950Z,5516.00
2018-05-04T07:23:41.976Z,5500.00
2018-05-04T07:25:34.907Z,5452.00
2018-05-04T07:26:34.909Z,5432.00
2018-05-04T07:28:27.848Z,5412.00
2018-05-04T07:29:27.841Z,5404.00
2018-05-04T07:31:20.750Z,5376.00
2018-05-04T07:32:20.771Z,5356.00
2018-05-04T07:34:14.696Z,5288.00
2018-05-04T07:35:14.703Z,5260.00
2018-05-04T07:37:07.742Z,5204.00
2018-05-04T07:38:07.765Z,5176.00
2018-05-04T07:40:00.921Z,5112.00
2018-05-04T07:41:00.924Z,5076.00
2018-05-04T07:42:53.832Z,5044.00
2018-05-04T07:43:53.855Z,5028.00
2018-05-04T07:45:46.788Z,5008.00
2018-05-04T07:46:46.788Z,4992.00
2018-05-04T07:48:39.791Z,4976.00
2018-05-04T07:49:39.722Z,4968.00
2018-05-04T07:51:32.823Z,4948.00
2018-05-04T07:52:32.841Z,4936.00
2018-05-04T07:54:25.774Z,4904.00
2018-05-04T07:55:25.775Z,4876.00
2018-05-04T07:57:19.853Z,4856.00
2018-05-04T07:58:19.876Z,4848.00
2018-05-04T08:00:12.803Z,4832.00
2018-05-04T08:01:12.807Z,4816.00
2018-05-04T08:03:05.717Z,4784.00
2018-05-04T08:04:05.740Z,4776.00
2018-05-04T08:05:58.674Z,4756.00
2018-05-04T08:06:58.680Z,4744.00
2018-05-04T08:08:51.804Z,4728.00
2018-05-04T08:09:51.796Z,4712.00
2018-05-04T08:11:44.704Z,4680.00
2018-05-04T08:12:44.723Z,4684.00
2018-05-04T08:14:37.651Z,4672.00
2018-05-04T08:15:37.658Z,4652.00
2018-05-04T08:17:30.567Z,4616.00
2018-05-04T08:18:30.593Z,4612.00
2018-05-04T08:20:24.512Z,4608.00
2018-05-04T08:21:24.520Z,4608.00
2018-05-04T08:23:17.567Z,4592.00
2018-05-04T08:24:17.589Z,4580.00
2018-05-04T08:26:10.740Z,4552.00
2018-05-04T08:27:10.746Z,4548.00
2018-05-04T08:29:04.668Z,4560.00
2018-05-04T08:30:04.675Z,4568.00
2018-05-04T08:31:57.755Z,4560.00
2018-05-04T08:32:57.779Z,4552.00
2018-05-04T08:34:50.933Z,4544.00
2018-05-04T08:35:50.939Z,4544.00
2018-05-04T08:37:44.073Z,4552.00
2018-05-04T08:38:44.097Z,4544.00
2018-05-04T08:40:37.305Z,4528.00
2018-05-04T08:41:37.255Z,4520.00
2018-05-04T08:43:30.169Z,4504.00
2018-05-04T08:44:30.190Z,4500.00
2018-05-04T08:46:23.117Z,4480.00
2018-05-04T08:47:23.124Z,4468.00
2018-05-04T08:49:16.054Z,4444.00
2018-05-04T08:50:16.058Z,4432.00
2018-05-04T08:52:08.969Z,4408.00
2018-05-04T08:53:08.993Z,4388.00
2018-05-04T08:55:01.922Z,4364.00
2018-05-04T08:56:01.930Z,4344.00
2018-05-04T08:57:55.056Z,4312.00
2018-05-04T08:58:55.079Z,4296.00
2018-05-04T09:00:48.088Z,4264.00
2018-05-04T09:01:48.013Z,4248.00
2018-05-04T09:03:41.068Z,4240.00
2018-05-04T09:04:41.094Z,4236.00
2018-05-04T09:06:41.633Z,4228.00
2018-05-04T09:07:41.151Z,4228.00
2018-05-04T09:09:27.449Z,4216.00
2018-05-04T09:10:27.455Z,4208.00
2018-05-04T09:12:20.364Z,4200.00
2018-05-04T09:13:20.387Z,4208.00
2018-05-04T09:15:13.520Z,4204.00
2018-05-04T09:16:13.522Z,4196.00
2018-05-04T09:18:06.429Z,4204.00
2018-05-04T09:19:06.455Z,4200.00
2018-05-04T09:20:59.532Z,4184.00
2018-05-04T09:21:59.538Z,4184.00
2018-05-04T09:23:52.443Z,4184.00
2018-05-04T09:24:52.467Z,4184.00
2018-05-04T09:26:45.398Z,4176.00
2018-05-04T09:27:45.402Z,4156.00
2018-05-04T09:29:38.345Z,4120.00
2018-05-04T09:30:38.369Z,4112.00
2018-05-04T09:32:31.308Z,4092.00
2018-05-04T09:33:31.278Z,4084.00
2018-05-04T09:35:24.207Z,4092.00
2018-05-04T09:36:24.217Z,4092.00
2018-05-04T09:38:17.123Z,4088.00
2018-05-04T09:39:17.145Z,4068.00
2018-05-04T09:41:10.306Z,4060.00
2018-05-04T09:42:10.310Z,4056.00
2018-05-04T09:44:03.222Z,4044.00
2018-05-04T09:45:03.245Z,4040.00
2018-05-04T09:46:56.313Z,4052.00
2018-05-04T09:47:56.322Z,4064.00
2018-05-04T09:49:49.477Z,4084.00
2018-05-04T09:50:49.478Z,4104.00
2018-05-04T09:52:42.533Z,4156.00
2018-05-04T09:53:42.557Z,4192.00
2018-05-04T09:55:35.487Z,4304.00
2018-05-04T09:56:35.491Z,4384.00
2018-05-04T09:58:28.401Z,4548.00
2018-05-04T09:59:28.426Z,4672.00
2018-05-04T10:01:21.352Z,4900.00
2018-05-04T10:02:21.359Z,4976.00
2018-05-04T10:04:14.272Z,5140.00
2018-05-04T10:05:14.295Z,5228.00
2018-05-04T10:07:07.228Z,5352.00
2018-05-04T10:08:07.234Z,5388.00
2018-05-04T10:10:00.369Z,5400.00
2018-05-04T10:11:00.360Z,5396.00
2018-05-04T10:12:53.499Z,5416.00
2018-05-04T10:13:53.523Z,5488.00
2018-05-04T10:15:46.447Z,5708.00
2018-05-04T10:16:46.456Z,5676.00
2018-05-04T10:18:39.504Z,5552.00
2018-05-04T10:19:39.531Z,5428.00
2018-05-04T10:21:32.999Z,5088.00
2018-05-04T10:22:32.468Z,4876.00
2018-05-04T10:24:25.383Z,4464.00
2018-05-04T10:25:25.407Z,4480.00
2018-05-04T10:27:18.336Z,4600.00
2018-05-04T10:28:18.341Z,4812.00
2018-05-04T10:30:11.286Z,5160.00
2018-05-04T10:31:11.279Z,5224.00
2018-05-04T10:33:04.192Z,5320.00
2018-05-04T10:34:04.221Z,5352.00
2018-05-04T10:35:57.147Z,5388.00
2018-05-04T10:36:57.154Z,5380.00
2018-05-04T10:38:50.144Z,5276.00
2018-05-04T10:39:50.087Z,5184.00
2018-05-04T10:41:43.016Z,4952.00
2018-05-04T10:42:43.023Z,4800.00
2018-05-04T10:44:36.930Z,4620.00
2018-05-04T10:45:36.956Z,4516.00
2018-05-04T10:47:29.886Z,4292.00
2018-05-04T10:48:29.890Z,4108.00
2018-05-04T10:50:22.838Z,4076.00
2018-05-04T10:51:22.825Z,4084.00
2018-05-04T10:53:15.734Z,4072.00
2018-05-04T10:54:15.759Z,4068.00
2018-05-04T10:56:08.687Z,4048.00
2018-05-04T10:57:08.757Z,4032.00
2018-05-04T10:59:01.608Z,4008.00
2018-05-04T11:00:01.664Z,4000.00
2018-05-04T11:01:54.559Z,3984.00
2018-05-04T11:02:54.565Z,3988.00
2018-05-04T11:04:47.475Z,4024.00
2018-05-04T11:05:47.500Z,4048.00
2018-05-04T11:07:40.428Z,4084.00
2018-05-04T11:08:40.433Z,4100.00
2018-05-04T11:10:33.367Z,4124.00
2018-05-04T11:11:33.369Z,4148.00
2018-05-04T11:13:26.276Z,4200.00
2018-05-04T11:14:26.302Z,4220.00
2018-05-04T11:16:19.243Z,4236.00
2018-05-04T11:17:19.246Z,4224.00
2018-05-04T11:19:12.158Z,4168.00
2018-05-04T11:20:12.183Z,4124.00
2018-05-04T11:22:05.114Z,4000.00
2018-05-04T11:23:05.117Z,3936.00
2018-05-04T11:24:58.028Z,3824.00
2018-05-04T11:25:58.052Z,3792.00
2018-05-04T11:27:50.981Z,3748.00
2018-05-04T11:28:50.987Z,3716.00
2018-05-04T11:30:43.896Z,3672.00
2018-05-04T11:31:43.920Z,3664.00
2018-05-04T11:33:44.957Z,3624.00
2018-05-04T11:34:37.353Z,3620.00
2018-05-04T11:36:30.777Z,3596.00
2018-05-04T11:37:30.779Z,3588.00
2018-05-04T11:39:23.694Z,3564.00
2018-05-04T11:40:23.718Z,3548.00
2018-05-04T11:42:16.827Z,3540.00
2018-05-04T11:43:16.828Z,3524.00
2018-05-04T11:45:09.741Z,3516.00
2018-05-04T11:46:09.770Z,3508.00
2018-05-04T11:48:02.704Z,3496.00
2018-05-04T11:49:02.704Z,3484.00
2018-05-04T11:50:55.622Z,3472.00
2018-05-04T11:51:55.637Z,3468.00
2018-05-04T11:53:48.569Z,3460.00
2018-05-04T11:54:48.582Z,3460.00
2018-05-04T11:56:41.509Z,3448.00
2018-05-04T11:57:41.519Z,3448.00
2018-05-04T11:59:34.429Z,3444.00
2018-05-04T12:00:34.467Z,3436.00
2018-05-04T12:02:27.419Z,3428.00
2018-05-04T12:03:27.421Z,3436.00
2018-05-04T12:05:20.441Z,3432.00
2018-05-04T12:06:20.465Z,3424.00
2018-05-04T12:08:13.613Z,3416.00
2018-05-04T12:09:13.617Z,3404.00
2018-05-04T12:11:06.756Z,3412.00
2018-05-04T12:12:06.782Z,3416.00
2018-05-04T12:13:59.931Z,3408.00
2018-05-04T12:14:59.942Z,3408.00
2018-05-04T12:16:53.090Z,3392.00
2018-05-04T12:17:53.097Z,3400.00
2018-05-04T12:19:46.613Z,3412.00
2018-05-04T12:20:46.027Z,3428.00
2018-05-04T12:22:39.111Z,3440.00
2018-05-04T12:23:39.137Z,3444.00
2018-05-04T12:25:32.240Z,3432.00
2018-05-04T12:26:32.334Z,3424.00
2018-05-04T12:28:25.421Z,3416.00
2018-05-04T12:29:25.468Z,3408.00
2018-05-04T12:31:18.557Z,3404.00
2018-05-04T12:32:18.580Z,3388.00
2018-05-04T12:34:11.509Z,3380.00
2018-05-04T12:35:11.521Z,3368.00
2018-05-04T12:37:04.493Z,3400.00
2018-05-04T12:38:04.461Z,3408.00
2018-05-04T12:39:58.363Z,3396.00
2018-05-04T12:40:58.388Z,3388.00
2018-05-04T12:42:51.318Z,3376.00
2018-05-04T12:43:51.323Z,3368.00
2018-05-04T12:45:44.452Z,3364.00
2018-05-04T12:46:44.477Z,3360.00
2018-05-04T12:48:37.656Z,3332.00
2018-05-04T12:49:37.636Z,3320.00
2018-05-04T12:51:30.553Z,3352.00
2018-05-04T12:52:30.576Z,3364.00
2018-05-04T12:54:24.057Z,3352.00
2018-05-04T12:55:24.006Z,3348.00
2018-05-04T12:57:17.257Z,3336.00
2018-05-04T12:58:17.110Z,3324.00
2018-05-04T13:00:10.244Z,3340.00
2018-05-04T13:01:10.272Z,3344.00
2018-05-04T13:03:03.422Z,3360.00
2018-05-04T13:04:03.517Z,3364.00
2018-05-04T13:05:56.565Z,3364.00
2018-05-04T13:06:56.587Z,3364.00
2018-05-04T13:08:49.557Z,3352.00
2018-05-04T13:09:49.520Z,3312.00
2018-05-04T13:11:42.435Z,3360.00
2018-05-04T13:12:42.460Z,3372.00
2018-05-04T13:14:35.550Z,3376.00
2018-05-04T13:15:35.553Z,3360.00
2018-05-04T13:17:29.150Z,3388.00
2018-05-04T13:18:28.735Z,3376.00
2018-05-04T13:20:21.851Z,3364.00
2018-05-04T13:21:21.875Z,3304.00
2018-05-04T13:23:15.421Z,3360.00
2018-05-04T13:24:15.096Z,3344.00
2018-05-04T13:26:08.217Z,3312.00
2018-05-04T13:27:08.250Z,3300.00
2018-05-04T13:29:01.336Z,3328.00
2018-05-04T13:30:01.341Z,3316.00
2018-05-04T13:31:54.907Z,3320.00
2018-05-04T13:32:54.903Z,3328.00
2018-05-04T13:34:48.066Z,3320.00
2018-05-04T13:35:48.141Z,3324.00
2018-05-04T13:37:41.007Z,3336.00
2018-05-04T13:38:41.011Z,3340.00
2018-05-04T13:40:34.054Z,3328.00
2018-05-04T13:41:34.078Z,3328.00
2018-05-04T13:43:27.241Z,3320.00
2018-05-04T13:44:27.241Z,3324.00
2018-05-04T13:46:20.162Z,3312.00
2018-05-04T13:47:20.188Z,3316.00
2018-05-04T13:49:13.143Z,3316.00
2018-05-04T13:50:13.175Z,3312.00
2018-05-04T13:52:06.046Z,3312.00
2018-05-04T13:53:06.055Z,3316.00
2018-05-04T13:55:06.303Z,3340.00
2018-05-04T13:56:06.789Z,3356.00
2018-05-04T13:57:52.100Z,3384.00
2018-05-04T13:58:52.106Z,3384.00
2018-05-04T14:00:45.024Z,3380.00
2018-05-04T14:01:45.041Z,3372.00
2018-05-04T14:03:38.110Z,3376.00
2018-05-04T14:04:38.118Z,3360.00
2018-05-04T14:06:31.030Z,3340.00
2018-05-04T14:07:31.053Z,3340.00
2018-05-04T14:09:23.988Z,3344.00
2018-05-04T14:10:23.994Z,3340.00
2018-05-04T14:12:16.906Z,3328.00
2018-05-04T14:13:16.927Z,3332.00
2018-05-04T14:15:10.893Z,3340.00
2018-05-04T14:16:10.902Z,3336.00
2018-05-04T14:18:03.851Z,3328.00
2018-05-04T14:19:03.836Z,3316.00
2018-05-04T14:20:56.746Z,3296.00
2018-05-04T14:21:56.773Z,3288.00
2018-05-04T14:23:49.701Z,3284.00
2018-05-04T14:24:49.708Z,3272.00
2018-05-04T14:26:42.630Z,3232.00
2018-05-04T14:27:42.655Z,3220.00
2018-05-04T14:29:35.723Z,3212.00
2018-05-04T14:30:35.725Z,3220.00
2018-05-04T14:32:28.638Z,3220.00
2018-05-04T14:33:28.661Z,3212.00
2018-05-04T14:35:21.595Z,3208.00
2018-05-04T14:36:21.597Z,3204.00
2018-05-04T14:38:14.528Z,3188.00
2018-05-04T14:39:14.534Z,3176.00
2018-05-04T14:41:07.446Z,3164.00
2018-05-04T14:42:07.478Z,3164.00
2018-05-04T14:44:00.406Z,3156.00
2018-05-04T14:45:00.417Z,3152.00
2018-05-04T14:46:53.338Z,3156.00
2018-05-04T14:47:53.355Z,3152.00
2018-05-04T14:49:46.503Z,3152.00
2018-05-04T14:50:46.565Z,3156.00
2018-05-04T14:52:39.450Z,3144.00
2018-05-04T14:53:39.441Z,3136.00
2018-05-04T14:55:32.352Z,3128.00
2018-05-04T14:56:32.377Z,3128.00
2018-05-04T14:58:25.313Z,3148.00
2018-05-04T14:59:25.321Z,3152.00
2018-05-04T15:01:18.230Z,3148.00
2018-05-04T15:02:18.254Z,3148.00
2018-05-04T15:04:11.187Z,3152.00
2018-05-04T15:05:11.192Z,3152.00
2018-05-04T15:07:04.102Z,3164.00
2018-05-04T15:08:04.170Z,3172.00
2018-05-04T15:09:57.058Z,3184.00
2018-05-04T15:10:57.064Z,3188.00
2018-05-04T15:12:49.975Z,3196.00
2018-05-04T15:13:50.000Z,3188.00
2018-05-04T15:15:42.934Z,3188.00
2018-05-04T15:16:42.937Z,3180.00
2018-05-04T15:18:35.867Z,3176.00
2018-05-04T15:19:35.881Z,3176.00
2018-05-04T15:21:28.793Z,3180.00
2018-05-04T15:22:28.820Z,3176.00
2018-05-04T15:24:21.750Z,3176.00
2018-05-04T15:25:21.762Z,3172.00
2018-05-04T15:27:14.677Z,3176.00
2018-05-04T15:28:14.699Z,3160.00
2018-05-04T15:30:07.625Z,3160.00
2018-05-04T15:31:07.639Z,3160.00
2018-05-04T15:33:00.541Z,3156.00
2018-05-04T15:34:00.568Z,3152.00
2018-05-04T15:35:53.504Z,3156.00
2018-05-04T15:36:53.504Z,3148.00
2018-05-04T15:38:46.438Z,3144.00
2018-05-04T15:39:46.449Z,3140.00
2018-05-04T15:41:39.351Z,3128.00
2018-05-04T15:42:39.376Z,3124.00
2018-05-04T15:44:32.310Z,3120.00
2018-05-04T15:45:32.314Z,3124.00
2018-05-04T15:47:25.227Z,3112.00
2018-05-04T15:48:25.252Z,3112.00
2018-05-04T15:50:18.179Z,3116.00
2018-05-04T15:51:18.186Z,3108.00
2018-05-04T15:53:11.098Z,3116.00
2018-05-04T15:54:11.122Z,3112.00
2018-05-04T15:56:04.055Z,3120.00
2018-05-04T15:57:04.067Z,3120.00
2018-05-04T15:58:56.992Z,3116.00
2018-05-04T15:59:57.040Z,3120.00
2018-05-04T16:01:50.029Z,3112.00
2018-05-04T16:02:50.054Z,3096.00
2018-05-04T16:04:42.983Z,3088.00
2018-05-04T16:05:42.989Z,3084.00
2018-05-04T16:07:35.901Z,3088.00
2018-05-04T16:08:35.925Z,3088.00
2018-05-04T16:10:28.864Z,3088.00
2018-05-04T16:11:28.873Z,3088.00
2018-05-04T16:13:21.781Z,3076.00
2018-05-04T16:14:21.819Z,3064.00
2018-05-04T16:16:14.738Z,3056.00
2018-05-04T16:17:14.744Z,3052.00
2018-05-04T16:19:07.865Z,3056.00
2018-05-04T16:20:15.485Z,3052.00
2018-05-04T16:22:08.965Z,3040.00
2018-05-04T16:23:01.310Z,3028.00
2018-05-04T16:24:54.237Z,3032.00
2018-05-04T16:25:54.248Z,3036.00
2018-05-04T16:27:47.324Z,3016.00
2018-05-04T16:28:47.384Z,3012.00
2018-05-04T16:30:40.276Z,2988.00
2018-05-04T16:31:40.282Z,2980.00
2018-05-04T16:33:33.332Z,2968.00
2018-05-04T16:34:33.365Z,2968.00
2018-05-04T16:36:26.510Z,2972.00
2018-05-04T16:37:26.520Z,2960.00
2018-05-04T16:39:19.448Z,2932.00
2018-05-04T16:40:19.452Z,2920.00
2018-05-04T16:42:12.361Z,2900.00
2018-05-04T16:43:12.387Z,2888.00
2018-05-04T16:45:05.402Z,2868.00
2018-05-04T16:46:05.320Z,2868.00
2018-05-04T16:47:58.236Z,2868.00
2018-05-04T16:48:58.264Z,2852.00
2018-05-04T16:50:51.188Z,2820.00
2018-05-04T16:51:51.193Z,2812.00
2018-05-04T16:53:44.105Z,2800.00
2018-05-04T16:54:44.131Z,2792.00
2018-05-04T16:56:37.335Z,2768.00
2018-05-04T16:57:37.300Z,2764.00
2018-05-04T16:59:30.224Z,2756.00
2018-05-04T17:00:30.228Z,2748.00
2018-05-04T17:02:23.284Z,2740.00
2018-05-04T17:03:23.304Z,2740.00
2018-05-04T17:05:16.231Z,2724.00
2018-05-04T17:06:16.241Z,2716.00
2018-05-04T17:08:09.149Z,2712.00
2018-05-04T17:09:09.259Z,2704.00
2018-05-04T17:11:02.106Z,2684.00
2018-05-04T17:12:02.136Z,2680.00
2018-05-04T17:13:55.028Z,2656.00
2018-05-04T17:14:55.046Z,2648.00
2018-05-04T17:16:47.975Z,2632.00
2018-05-04T17:17:47.986Z,2620.00
2018-05-04T17:19:40.909Z,2596.00
2018-05-04T17:20:40.913Z,2584.00
2018-05-04T17:22:33.829Z,2564.00
2018-05-04T17:23:33.848Z,2548.00
2018-05-04T17:25:26.935Z,2528.00
2018-05-04T17:26:26.941Z,2520.00
2018-05-04T17:28:19.846Z,2512.00
2018-05-04T17:29:19.869Z,2500.00
2018-05-04T17:31:12.799Z,2480.00
2018-05-04T17:32:12.805Z,2460.00
2018-05-04T17:34:05.742Z,2424.00
2018-05-04T17:35:05.740Z,2408.00
2018-05-04T17:36:58.668Z,2376.00
2018-05-04T17:37:58.673Z,2352.00
2018-05-04T17:39:51.600Z,2328.00
2018-05-04T17:40:51.606Z,2312.00
2018-05-04T17:42:44.519Z,2288.00
2018-05-04T17:43:44.541Z,2272.00
2018-05-04T17:45:37.468Z,2232.00